Homestead ARB Airport
KHST : now visible

Airfield :











YOU CAN JOIN US ON...

 
LOGIN :

Register | Disclaimer

   EN    FR    IT 

 









Legend :    VFR   Marginal VFR   IFR   Intensive IFR   Very Intensive IFR
Visi :
Ceiling :
>= 8 km
>= 3000ft
5 to 8 km
1000 to 3000 ft
1500m to 5 km
500 to 1000 ft
800 to 1500m
200 to 500 ft
< 800m
< 200 ft
Symbols :   Thunderstorms  Fog  Heavy snow  Heavy precipitations  Wind > 20 kt






- Airport Elevation : 5 ft


KHST - Homestead ARB

CURRENT METAR :
  • 041736Z AUTO 33005KT 10SM VCTS BKN030 BKN050 29/26 A2999 RMK AO2 RAB1656E12DZB12E14RAB14E24 TSB12E36 SLP159

EXPIRED METARs :
  • 041712Z AUTO 03009KT 9SM -TSRA FEW006 BKN027 OVC034 28/25 A2998 RMK AO2 VIS 5/8 RWY24 RAB1656 TSB12 CIG 026 RWY24 SLP156
  • 041702Z AUTO 04010KT 7SM +RA FEW005 BKN029 BKN034 BKN080 28/26 A2999 RMK AO2 VIS 2 1/4 RWY24 LTG DSNT W-N RAB1656 CIG 029V034 BKN029 V SCT SLP159
  • 041657Z AUTO 06005KT 10SM -RA BKN031 BKN050 BKN070 BKN080 28/26 A2999 RMK AO2 VIS 2 3/4 RWY24 LTG DSNT W-N RAB56 SLP159
  • 041641Z AUTO 36003KT 10SM VCTS SCT033 BKN050 BKN070 BKN080 BKN100 29/26 A2999 RMK AO2 RAE05DZB05E08RAB08E41 TSB22E37 SLP159
  • 041622Z AUTO 27005KT 6SM +TSRA SCT027 BKN035 OVC044 29/26 A3000 RMK AO2 RAE05DZB05E08RAB08 TSB22 SLP162
  • 041616Z AUTO 27004KT 9SM -RA SCT027 BKN033 OVC060 29/26 A3000 RMK AO2 RAE05DZB05E08RAB08 PRESRR SLP162
  • 041556Z AUTO 22007KT 10SM -RA FEW023 OVC030 31/26 A2999 RMK AO2 RAB52 SLP159 P0000 T03050260
  • 041541Z AUTO 14009KT 10SM BKN030 32/25 A2999 RMK AO2 SLP159
  • 041506Z AUTO 20007KT 10SM BKN028 BKN035 31/25 A2999 RMK AO2 CIG 028V035 SLP159
  • 041456Z AUTO 16004KT 10SM SCT029 BKN035 31/25 A2999 RMK AO2 SLP159 T03130249 51011

TAF AMD TAF KHST
Valid from the 04 at 16:00 until the 05 at 17:00 UTC


041624Z 0416/0517 21007KT 9999 SCT025 BKN040 QNH2996INS
TEMPO 0416/0423 VRB10G15KT 8000 -TSRA BKN025CB OVC035
BECMG 0423/0424 15003KT 9999 NSW SCT025 QNH2997INS TX32/0418Z TN26/0510Z
KZMA FIR / North America



MET'MAP, your aeronautical weather chart ! - Copyright ORBIFLY December 2007 - Disclaimer

ORBIFLY MET'MAP TEAM :

Programming & Development : Alexandra Zaïnal
Concept & original design : Baudouin d'Aumeries
Assistance for programming : Marc-Olivier Méhu
Technical & hardware support : Manuel Goepfert

Contact : metmap@orbifly.com




SOURCES & CREDITS :

   NOAA       Earth
Advisory